Time;durP1;ratioP1;P1;durP2;ratioP2;P2;SDS_P1;SDS_P2;PMS_P1;PMS_P2;Temp;Humidity;BMP_temperature;BMP_pressure;BME280_temperature;BME280_humidity;BME280_pressure;Samples;Min_cycle;Max_cycle;Signal;HPM_P1;HPM_P2
2021/12/12 00:02:30;;;;;;;9.88;2.72;;;;;;;20.58;41.75;101995.56;7313327;19;130906;-65
2021/12/12 00:04:58;;;;;;;7.18;2.67;;;;;;;20.54;41.46;101999.06;7312461;19;129472;-65
2021/12/12 00:07:31;;;;;;;11.32;2.75;;;;;;;20.49;41.70;101985.88;7311363;19;129126;-65
2021/12/12 00:10:04;;;;;;;7.47;2.95;;;;;;;20.45;41.31;101981.84;7313790;19;131294;-65
2021/12/12 00:12:35;;;;;;;7.10;2.63;;;;;;;20.43;41.18;101970.13;7307606;19;131341;-65
2021/12/12 00:15:07;;;;;;;11.95;2.75;;;;;;;20.41;41.64;101972.28;7313942;19;128958;-65
2021/12/12 00:17:34;;;;;;;6.80;2.50;;;;;;;20.39;41.44;101975.28;7310931;19;129054;-65
2021/12/12 00:20:02;;;;;;;9.43;2.83;;;;;;;20.37;41.01;101977.44;7311136;19;130475;-65
2021/12/12 00:22:30;;;;;;;10.60;3.28;;;;;;;20.37;41.51;101973.84;7311757;19;130754;-65
2021/12/12 00:24:58;;;;;;;13.27;3.35;;;;;;;20.33;41.20;101975.38;7310564;19;134285;-64
2021/12/12 00:27:25;;;;;;;8.50;2.20;;;;;;;20.30;41.02;101976.69;7310803;19;128936;-65
2021/12/12 00:29:52;;;;;;;9.70;2.72;;;;;;;20.26;41.03;101976.31;7308259;19;130799;-65
2021/12/12 00:32:23;;;;;;;6.25;2.20;;;;;;;20.24;41.17;101972.06;7311483;19;131440;-64
2021/12/12 00:34:57;;;;;;;8.93;2.28;;;;;;;20.21;41.23;101972.53;7310315;19;128968;-65
2021/12/12 00:37:23;;;;;;;8.55;2.65;;;;;;;20.18;41.22;101968.28;7309855;19;128777;-64
2021/12/12 00:39:54;;;;;;;8.57;2.85;;;;;;;20.17;41.26;101966.59;7309144;19;130636;-65
2021/12/12 00:42:27;;;;;;;6.88;2.38;;;;;;;20.15;41.31;101957.63;7311310;19;131297;-64
2021/12/12 00:44:57;;;;;;;7.70;2.50;;;;;;;20.13;41.49;101965.34;7314360;19;128788;-65
2021/12/12 00:47:25;;;;;;;4.60;2.65;;;;;;;20.09;41.42;101959.41;7310022;19;128891;-65
2021/12/12 00:50:10;;;;;;;9.35;2.80;;;;;;;20.08;41.16;101956.84;7312126;19;130823;-64
2021/12/12 00:52:38;;;;;;;7.35;2.60;;;;;;;20.06;41.25;101964.59;7311784;19;130460;-65
2021/12/12 00:55:05;;;;;;;8.82;2.38;;;;;;;20.03;41.36;101957.53;7312531;19;128883;-64
2021/12/12 00:57:32;;;;;;;6.97;2.60;;;;;;;20.02;41.14;101963.34;7313493;19;129038;-65
2021/12/12 00:59:59;;;;;;;7.32;2.40;;;;;;;20.00;41.04;101958.00;7311218;19;130732;-65
2021/12/12 01:02:30;;;;;;;7.15;2.40;;;;;;;19.99;41.10;101957.16;7314190;19;130510;-65
2021/12/12 01:05:00;;;;;;;7.70;2.35;;;;;;;19.99;41.23;101959.94;7310979;19;129436;-65
2021/12/12 01:07:35;;;;;;;6.18;2.45;;;;;;;19.96;40.83;101953.97;7313238;19;129479;-64
2021/12/12 01:10:25;;;;;;;6.03;2.40;;;;;;;19.94;41.01;101947.78;7309601;19;130811;-64
2021/12/12 01:12:55;;;;;;;7.78;2.55;;;;;;;19.92;41.06;101948.03;7310793;19;130702;-64
2021/12/12 01:15:48;;;;;;;5.38;2.13;;;;;;;19.90;40.85;101952.97;7310403;19;128843;-65
2021/12/12 01:18:23;;;;;;;6.47;2.33;;;;;;;19.89;41.17;101954.03;7309367;19;128952;-64
2021/12/12 01:20:58;;;;;;;5.90;2.65;;;;;;;19.87;40.93;101947.03;7311566;19;130646;-64
2021/12/12 01:23:43;;;;;;;7.45;2.20;;;;;;;19.86;40.88;101951.72;7310118;19;130508;-64
2021/12/12 01:26:10;;;;;;;4.70;2.17;;;;;;;19.83;40.76;101949.41;7310590;19;133455;-65
2021/12/12 01:28:43;;;;;;;7.43;2.30;;;;;;;19.84;40.91;101956.66;7312903;19;128939;-64
2021/12/12 01:31:16;;;;;;;6.32;2.50;;;;;;;19.83;40.67;101949.41;7310222;19;130582;-64
2021/12/12 01:33:43;;;;;;;5.45;2.20;;;;;;;19.82;40.60;101942.13;7311579;19;130484;-64
2021/12/12 01:36:23;;;;;;;7.32;2.90;;;;;;;19.81;41.05;101948.81;7310587;19;129769;-65
2021/12/12 01:38:58;;;;;;;6.35;2.20;;;;;;;19.80;40.64;101944.31;7311505;19;129004;-64
2021/12/12 01:41:31;;;;;;;4.43;2.22;;;;;;;19.80;40.86;101944.31;7319277;19;130786;-64
2021/12/12 01:44:03;;;;;;;8.75;2.60;;;;;;;19.78;40.34;101954.81;7317437;19;130667;-64
2021/12/12 01:46:34;;;;;;;5.88;2.22;;;;;;;19.77;40.30;101945.59;7319342;19;128855;-64
2021/12/12 01:49:11;;;;;;;5.78;2.20;;;;;;;19.77;40.81;101950.31;7316303;19;128986;-64
2021/12/12 01:51:38;;;;;;;6.57;2.00;;;;;;;19.74;40.38;101945.22;7317801;19;131516;-64
2021/12/12 01:54:07;;;;;;;8.52;2.35;;;;;;;19.74;40.59;101940.53;7317143;19;130672;-64
2021/12/12 01:56:42;;;;;;;6.13;2.45;;;;;;;19.73;40.58;101937.97;7317925;19;130558;-64
2021/12/12 01:59:12;;;;;;;5.28;2.20;;;;;;;19.73;40.93;101927.72;7318325;19;128859;-64
2021/12/12 02:02:01;;;;;;;7.70;2.60;;;;;;;19.72;40.33;101930.72;7315987;19;131140;-64
2021/12/12 02:04:35;;;;;;;5.70;2.28;;;;;;;19.71;40.02;101932.66;7318826;19;131631;-64
2021/12/12 02:07:06;;;;;;;4.18;1.85;;;;;;;19.68;40.20;101924.78;7315243;19;131007;-64
2021/12/12 02:09:33;;;;;;;5.60;2.55;;;;;;;19.67;40.14;101925.84;7318890;19;129349;-64
2021/12/12 02:12:01;;;;;;;5.80;2.30;;;;;;;19.66;40.09;101930.56;7315102;19;130462;-64
2021/12/12 02:14:31;;;;;;;4.63;2.10;;;;;;;19.66;40.04;101932.47;7316608;19;134086;-64
2021/12/12 02:17:18;;;;;;;4.70;2.35;;;;;;;19.66;39.94;101938.91;7317390;19;129085;-64
2021/12/12 02:20:23;;;;;;;6.28;2.33;;;;;;;19.62;39.96;101940.44;7314251;19;129427;-64
2021/12/12 02:22:55;;;;;;;6.35;2.47;;;;;;;19.63;40.13;101928.25;7316598;19;131545;-64
2021/12/12 02:36:31;;;;;;;6.23;2.10;;;;;;;19.55;39.68;101911.91;7318005;19;130642;-64
2021/12/12 02:39:00;;;;;;;7.78;2.08;;;;;;;19.55;40.21;101908.25;7316828;19;128816;-64
2021/12/12 02:41:27;;;;;;;6.70;2.17;;;;;;;19.53;40.21;101912.09;7316111;19;130869;-64
2021/12/12 02:44:00;;;;;;;7.43;2.65;;;;;;;19.54;39.77;101907.41;7317810;19;130720;-64
2021/12/12 02:46:32;;;;;;;5.72;2.70;;;;;;;19.53;39.85;101914.06;7313634;19;131026;-64
2021/12/12 02:49:22;;;;;;;4.78;1.90;;;;;;;19.52;40.20;101910.41;7317337;19;129260;-64
2021/12/12 02:51:50;;;;;;;5.60;2.08;;;;;;;19.52;40.07;101915.13;7312690;19;131587;-64
2021/12/12 02:54:17;;;;;;;5.40;2.10;;;;;;;19.52;39.71;101901.25;7314980;19;130778;-64
2021/12/12 02:56:46;;;;;;;5.82;2.63;;;;;;;19.51;39.57;101910.66;7317224;19;130353;-64
2021/12/12 02:59:18;;;;;;;5.75;2.13;;;;;;;19.51;39.93;101907.88;7312435;19;128994;-64
2021/12/12 03:01:50;;;;;;;4.18;1.83;;;;;;;19.49;39.57;101915.56;7316251;19;128853;-64
2021/12/12 03:04:18;;;;;;;6.85;2.50;;;;;;;19.49;40.00;101904.47;7314712;19;130605;-64
2021/12/12 03:06:46;;;;;;;3.63;1.70;;;;;;;19.48;39.98;101911.09;7312164;19;130483;-64
2021/12/12 03:09:14;;;;;;;6.53;2.17;;;;;;;19.46;39.80;101914.09;7313631;19;128969;-64
2021/12/12 03:11:43;;;;;;;4.30;1.80;;;;;;;19.44;39.79;101918.19;7312988;19;129149;-64
2021/12/12 03:14:10;;;;;;;3.75;2.00;;;;;;;19.44;39.98;101923.75;7316205;19;130563;-64
2021/12/12 03:16:37;;;;;;;5.20;2.03;;;;;;;19.43;39.69;101913.72;7313040;19;130625;-64
2021/12/12 03:19:06;;;;;;;5.63;2.40;;;;;;;19.42;39.35;101920.34;7317003;19;128871;-64
2021/12/12 03:21:42;;;;;;;3.50;2.00;;;;;;;19.40;39.61;101917.78;7314012;19;129001;-64
2021/12/12 03:24:15;;;;;;;5.55;2.20;;;;;;;19.41;39.42;101925.03;7315438;19;132803;-64
2021/12/12 03:26:44;;;;;;;6.55;2.13;;;;;;;19.41;39.50;101924.19;7310971;19;130638;-64
2021/12/12 03:29:12;;;;;;;3.80;1.63;;;;;;;19.40;39.43;101922.50;7314907;19;129542;-64
2021/12/12 03:31:45;;;;;;;4.57;2.17;;;;;;;19.38;39.24;101914.41;7315179;19;128834;-64
2021/12/12 03:34:18;;;;;;;5.18;2.05;;;;;;;19.38;39.50;101918.03;7313304;19;130574;-64
2021/12/12 03:36:46;;;;;;;5.43;1.92;;;;;;;19.37;39.83;101924.66;7315858;19;130591;-64
2021/12/12 03:39:17;;;;;;;5.68;2.03;;;;;;;19.37;39.32;101921.03;7311229;19;129661;-64
2021/12/12 03:41:45;;;;;;;5.82;1.75;;;;;;;19.35;39.17;101920.41;7315611;19;128883;-64
2021/12/12 03:44:18;;;;;;;5.20;2.45;;;;;;;19.33;39.23;101920.63;7313386;19;130572;-65
2021/12/12 03:46:51;;;;;;;4.30;1.77;;;;;;;19.32;38.92;101916.13;7314489;19;130514;-64
2021/12/12 03:49:20;;;;;;;4.70;1.75;;;;;;;19.32;39.28;101916.13;7314088;19;128959;-64
2021/12/12 03:51:47;;;;;;;4.85;2.00;;;;;;;19.32;39.03;101916.13;7313877;19;129796;-64
2021/12/12 03:54:16;;;;;;;4.93;2.13;;;;;;;19.31;38.85;101919.16;7315867;19;130560;-64
2021/12/12 03:56:44;;;;;;;6.60;2.10;;;;;;;19.29;39.29;101915.75;7311988;19;130729;-64
2021/12/12 03:59:13;;;;;;;6.35;2.08;;;;;;;19.28;38.89;101906.59;7315313;19;129398;-64
2021/12/12 04:01:47;;;;;;;4.70;1.98;;;;;;;19.27;38.77;101910.44;7313691;19;128900;-64
2021/12/12 04:04:21;;;;;;;3.10;1.65;;;;;;;19.27;39.00;101910.44;7313580;19;130612;-64
2021/12/12 04:06:50;;;;;;;3.97;1.63;;;;;;;19.25;38.95;101895.94;7314677;19;130563;-64
2021/12/12 04:09:17;;;;;;;4.05;1.75;;;;;;;19.24;39.15;101891.47;7313629;19;128870;-64
2021/12/12 04:11:49;;;;;;;6.15;2.15;;;;;;;19.25;39.45;101887.63;7315538;19;129267;-64
2021/12/12 04:14:16;;;;;;;4.82;1.65;;;;;;;19.25;39.12;101882.06;7310984;19;130898;-64
2021/12/12 04:16:47;;;;;;;4.15;1.95;;;;;;;19.24;39.11;101880.38;7314048;19;130554;-64
2021/12/12 04:19:14;;;;;;;5.90;2.00;;;;;;;19.23;38.97;101881.44;7312405;19;129381;-64
2021/12/12 04:21:41;;;;;;;3.88;1.80;;;;;;;19.21;38.92;101889.13;7312924;19;129725;-64
2021/12/12 04:24:09;;;;;;;3.85;1.50;;;;;;;19.21;39.39;101894.69;7310638;19;131099;-64
2021/12/12 04:26:42;;;;;;;3.88;1.60;;;;;;;19.20;39.12;101892.97;7311405;19;130497;-64
2021/12/12 04:29:09;;;;;;;4.10;1.65;;;;;;;19.19;39.10;101886.56;7314389;19;128913;-64
2021/12/12 04:31:39;;;;;;;2.83;1.60;;;;;;;19.19;38.85;101894.06;7312380;19;129232;-64
2021/12/12 04:34:07;;;;;;;3.65;1.75;;;;;;;19.19;38.88;101894.06;7314521;19;130671;-64
2021/12/12 04:36:38;;;;;;;4.13;1.88;;;;;;;19.17;38.81;101893.44;7310275;19;130435;-64
2021/12/12 04:39:20;;;;;;;3.35;1.55;;;;;;;19.17;38.72;101902.59;7313846;19;129002;-64
2021/12/12 04:41:51;;;;;;;4.30;1.40;;;;;;;19.16;38.79;101903.66;7310783;19;129145;-64
2021/12/12 04:44:29;;;;;;;3.38;1.70;;;;;;;19.17;38.65;101910.06;7310714;19;131449;-64
2021/12/12 04:50:21;;;;;;;4.97;1.63;;;;;;;19.14;39.09;101922.44;7308809;19;129972;-64
2021/12/12 04:52:54;;;;;;;4.18;1.70;;;;;;;19.13;39.02;101918.00;7312162;19;128902;-64
2021/12/12 04:55:23;;;;;;;4.47;1.70;;;;;;;19.12;38.88;101921.84;7309222;19;131898;-64
2021/12/12 04:58:32;;;;;;;3.63;1.90;;;;;;;19.11;39.20;101914.59;7310221;19;130623;-64
2021/12/12 05:01:02;;;;;;;;;;;;;;;19.08;38.86;101921.41;7309892;19;129987;-64
2021/12/12 05:03:49;;;;;;;3.25;1.60;;;;;;;19.11;39.03;101922.06;7309708;19;128895;-64
2021/12/12 05:06:26;;;;;;;3.78;1.63;;;;;;;19.10;38.94;101912.91;7308615;19;130708;-64
2021/12/12 05:09:02;;;;;;;3.25;1.60;;;;;;;19.10;38.81;101906.47;7310821;19;130502;-64
2021/12/12 05:11:33;;;;;;;4.23;1.73;;;;;;;19.08;39.10;101910.31;7307412;19;129348;-64
2021/12/12 05:14:08;;;;;;;2.58;1.40;;;;;;;19.07;39.25;101908.66;7310679;19;128863;-64
2021/12/12 05:16:41;;;;;;;3.97;1.77;;;;;;;19.07;38.80;101908.66;7316728;19;133765;-65
2021/12/12 05:19:17;;;;;;;2.92;1.40;;;;;;;19.06;39.02;101912.50;7316037;19;130476;-64
2021/12/12 05:21:53;;;;;;;3.65;1.23;;;;;;;19.07;39.20;101913.34;7317052;19;128869;-64
2021/12/12 05:24:22;;;;;;;3.13;1.50;;;;;;;19.06;38.74;101922.72;7314615;19;129657;-64
2021/12/12 05:26:55;;;;;;;3.85;1.52;;;;;;;19.06;38.78;101917.19;7318591;19;130517;-64
2021/12/12 05:29:34;;;;;;;3.63;1.38;;;;;;;19.05;38.54;101916.34;7316370;19;130605;-64
2021/12/12 05:32:03;;;;;;;2.95;1.40;;;;;;;19.05;38.76;101915.47;7318134;19;128823;-64
2021/12/12 05:34:33;;;;;;;2.67;1.33;;;;;;;19.04;38.69;101920.19;7314370;19;129495;-64
2021/12/12 05:37:02;;;;;;;3.80;1.40;;;;;;;19.04;38.78;101924.88;7317705;19;132543;-64
2021/12/12 05:39:31;;;;;;;4.95;1.35;;;;;;;19.03;38.77;101921.25;7316792;19;130601;-64
2021/12/12 05:41:58;;;;;;;2.85;1.40;;;;;;;19.04;39.06;101927.66;7314925;19;128717;-64
2021/12/12 05:44:29;;;;;;;2.47;1.35;;;;;;;19.02;38.63;101927.88;7316719;19;129547;-64
2021/12/12 05:47:03;;;;;;;4.28;1.42;;;;;;;19.02;39.06;101925.13;7314559;19;131144;-64
2021/12/12 05:49:32;;;;;;;3.00;1.42;;;;;;;19.02;38.94;101927.88;7316046;19;131349;-64
2021/12/12 05:52:00;;;;;;;4.53;1.50;;;;;;;19.02;38.84;101932.56;7315061;19;130299;-64
2021/12/12 05:54:28;;;;;;;4.90;1.58;;;;;;;19.02;38.71;101935.34;7315730;19;129378;-64
2021/12/12 05:56:55;;;;;;;4.68;1.30;;;;;;;19.01;38.75;101942.81;7318316;19;130630;-64
2021/12/12 05:59:23;;;;;;;2.88;1.05;;;;;;;19.01;38.62;101942.81;7313679;19;130741;-64
2021/12/12 06:01:50;;;;;;;2.22;1.30;;;;;;;18.99;38.80;101944.97;7317672;19;128962;-64
2021/12/12 06:04:19;;;;;;;3.72;1.30;;;;;;;19.00;39.15;101943.91;7312578;19;135669;-64
2021/12/12 06:06:46;;;;;;;2.60;1.27;;;;;;;18.98;39.04;101951.59;7316149;19;130604;-64
2021/12/12 06:09:16;;;;;;;2.15;1.27;;;;;;;18.98;38.99;101947.97;7313397;19;132713;-64
2021/12/12 06:11:47;;;;;;;3.47;1.30;;;;;;;18.97;38.53;101943.50;7316266;19;129173;-64
2021/12/12 06:14:15;;;;;;;2.33;1.10;;;;;;;18.96;38.86;101950.13;7312950;19;129478;-64
2021/12/12 06:16:44;;;;;;;3.05;1.33;;;;;;;18.95;38.76;101952.06;7314389;19;131267;-64
2021/12/12 06:19:17;;;;;;;2.17;1.23;;;;;;;18.94;38.59;101953.13;7318265;19;132538;-64
2021/12/12 06:21:45;;;;;;;2.40;1.30;;;;;;;18.93;38.96;101951.41;7312861;19;129338;-64
2021/12/12 06:24:13;;;;;;;5.00;1.20;;;;;;;18.93;38.64;101968.06;7316477;19;128924;-64
2021/12/12 06:26:40;;;;;;;2.17;1.00;;;;;;;18.93;38.77;101968.06;7309626;19;131537;-64
2021/12/12 06:29:07;;;;;;;2.05;1.10;;;;;;;;;;7315304;19;131986;-64
2021/12/12 06:31:37;;;;;;;2.20;1.35;;;;;;;18.93;39.00;101970.84;7313987;19;131327;-64
2021/12/12 06:34:04;;;;;;;2.33;1.10;;;;;;;18.92;38.78;101971.91;7314758;19;129064;-64
2021/12/12 06:36:32;;;;;;;1.88;1.02;;;;;;;18.92;39.03;101969.13;7312269;19;131260;-64
2021/12/12 06:38:59;;;;;;;2.38;1.05;;;;;;;18.91;38.66;101978.50;7314553;19;130536;-64
2021/12/12 06:41:26;;;;;;;2.78;1.33;;;;;;;18.89;38.64;101984.25;7317159;19;128930;-64
2021/12/12 06:43:56;;;;;;;2.03;1.10;;;;;;;18.90;38.53;101990.69;7313525;19;129966;-64
2021/12/12 06:46:24;;;;;;;2.17;1.20;;;;;;;18.88;38.81;101992.81;7315436;19;130694;-64
2021/12/12 06:48:51;;;;;;;2.33;1.42;;;;;;;18.87;38.38;101983.66;7313134;19;130502;-64
2021/12/12 06:51:18;;;;;;;1.85;1.17;;;;;;;18.87;38.59;101991.13;7316087;19;129672;-64
2021/12/12 06:53:47;;;;;;;3.35;1.20;;;;;;;18.86;38.64;101989.41;7315631;19;129702;-64
2021/12/12 06:56:17;;;;;;;1.42;0.95;;;;;;;18.86;38.83;101993.06;7313920;19;130603;-64
2021/12/12 06:58:44;;;;;;;2.47;0.98;;;;;;;18.86;38.73;101989.41;7314844;19;131060;-64
2021/12/12 07:01:16;;;;;;;3.33;0.98;;;;;;;18.86;38.74;101997.72;7312372;19;128909;-64
2021/12/12 07:03:45;;;;;;;2.28;1.08;;;;;;;18.85;38.66;101991.34;7315112;19;128937;-64
2021/12/12 07:06:13;;;;;;;2.20;1.17;;;;;;;18.84;38.42;101991.56;7313286;19;131465;-64
2021/12/12 07:08:40;;;;;;;2.83;1.00;;;;;;;18.84;38.50;101991.56;7314928;19;130623;-64
2021/12/12 07:11:07;;;;;;;2.13;1.10;;;;;;;18.83;38.46;101990.72;7311118;19;129049;-64
2021/12/12 07:13:35;;;;;;;1.92;1.02;;;;;;;18.83;38.92;101992.66;7313564;19;128978;-64
2021/12/12 07:16:04;;;;;;;1.58;0.90;;;;;;;18.82;38.51;101994.56;7313625;19;131289;-64
2021/12/12 07:18:34;;;;;;;2.03;1.20;;;;;;;18.81;38.31;101994.78;7313509;19;131595;-64
2021/12/12 07:21:06;;;;;;;1.80;0.88;;;;;;;18.80;38.46;101996.69;7314934;19;128836;-64
2021/12/12 07:23:34;;;;;;;1.95;1.00;;;;;;;18.80;38.83;101993.94;7313800;19;134519;-64
2021/12/12 07:26:05;;;;;;;2.15;1.10;;;;;;;18.80;38.37;101995.84;7314419;19;130426;-64
2021/12/12 07:28:33;;;;;;;1.95;1.02;;;;;;;18.79;38.48;101996.94;7312744;19;130520;-64
2021/12/12 07:31:04;;;;;;;1.83;0.90;;;;;;;18.78;38.69;102004.38;7313802;19;129381;-64
2021/12/12 07:33:32;;;;;;;2.40;1.02;;;;;;;18.80;38.94;102006.94;7309876;19;129667;-64
2021/12/12 07:36:01;;;;;;;2.10;0.95;;;;;;;18.77;38.32;102000.78;7313038;19;130600;-64
2021/12/12 07:38:30;;;;;;;1.38;1.00;;;;;;;18.76;38.44;102001.84;7309239;19;130523;-66
2021/12/12 07:40:59;;;;;;;1.88;1.00;;;;;;;18.79;38.84;102002.47;7304012;19;129444;-66
2021/12/12 07:43:28;;;;;;;2.45;1.00;;;;;;;18.82;38.51;101999.25;7314206;19;128875;-66
2021/12/12 07:45:56;;;;;;;2.50;1.23;;;;;;;18.88;38.35;102003.91;7311301;19;130673;-66
2021/12/12 07:48:24;;;;;;;2.40;1.10;;;;;;;19.00;38.30;102007.69;7314891;19;130512;-66
2021/12/12 07:50:52;;;;;;;6.45;1.15;;;;;;;19.12;37.99;102015.28;7311372;19;130086;-65
2021/12/12 07:53:20;;;;;;;7.03;0.98;;;;;;;19.29;38.16;102008.16;7315142;19;129155;-66
2021/12/12 07:55:47;;;;;;;5.18;1.00;;;;;;;19.49;37.46;102016.34;7310852;19;132244;-66
2021/12/12 07:58:17;;;;;;;6.90;0.98;;;;;;;19.72;37.44;102008.44;7310936;19;131186;-66
2021/12/12 08:00:48;;;;;;;2.80;0.98;;;;;;;19.93;36.94;102021.94;7309998;19;129701;-66
2021/12/12 08:03:15;;;;;;;9.85;1.17;;;;;;;20.09;36.61;102012.19;7314010;19;131089;-66
2021/12/12 08:05:42;;;;;;;3.72;0.80;;;;;;;20.25;37.04;102016.28;7314285;19;131236;-66
2021/12/12 08:08:12;;;;;;;3.15;0.88;;;;;;;20.41;36.63;102022.31;7310823;19;130915;-66
2021/12/12 08:10:42;;;;;;;1.77;0.93;;;;;;;20.52;36.61;102029.88;7314016;19;129008;-65
2021/12/12 08:13:11;;;;;;;2.65;0.88;;;;;;;20.61;36.50;102027.66;7311559;19;129613;-66
2021/12/12 08:15:38;;;;;;;1.88;0.85;;;;;;;20.66;35.97;102030.56;7313033;19;130681;-66
2021/12/12 08:18:07;;;;;;;7.90;0.93;;;;;;;20.68;36.26;102039.53;7311249;19;130661;-66
2021/12/12 08:20:35;;;;;;;1.90;0.90;;;;;;;20.70;36.05;102037.34;7312638;19;129145;-67
2021/12/12 08:23:03;;;;;;;2.40;0.88;;;;;;;20.70;35.83;102042.06;7311993;19;128924;-66
2021/12/12 08:25:31;;;;;;;4.97;1.00;;;;;;;20.69;36.15;102037.56;7312778;19;130607;-66
2021/12/12 08:28:01;;;;;;;1.45;0.80;;;;;;;20.67;35.88;102031.41;7310936;19;130500;-66
2021/12/12 08:30:30;;;;;;;3.90;0.88;;;;;;;20.65;36.03;102044.72;7310514;19;129274;-67
2021/12/12 08:32:58;;;;;;;2.83;0.90;;;;;;;20.61;35.91;102047.09;7313543;19;129882;-67
2021/12/12 08:35:27;;;;;;;4.07;1.10;;;;;;;20.57;35.99;102045.88;7309199;19;131306;-66
2021/12/12 08:37:56;;;;;;;2.33;0.80;;;;;;;20.54;35.87;102049.09;7312525;19;131074;-66
2021/12/12 08:40:29;;;;;;;7.03;1.30;;;;;;;20.50;36.17;102047.84;7305773;19;130039;-66
2021/12/12 08:42:56;;;;;;;1.63;0.80;;;;;;;20.44;35.91;102053.28;7310729;19;130731;-66
2021/12/12 08:45:27;;;;;;;4.30;0.90;;;;;;;20.38;36.26;102054.19;7306468;19;137436;-66
2021/12/12 08:47:58;;;;;;;2.90;0.90;;;;;;;20.33;36.16;102058.75;7311696;19;130663;-66
2021/12/12 08:50:28;;;;;;;6.20;1.08;;;;;;;20.29;36.04;102063.91;7303731;19;128865;-66
2021/12/12 08:52:58;;;;;;;3.63;1.10;;;;;;;20.24;36.01;102050.72;7307445;19;130769;-66
2021/12/12 08:55:34;;;;;;;2.42;0.80;;;;;;;20.25;36.30;102063.53;7309593;19;130731;-66
2021/12/12 08:58:14;;;;;;;3.67;0.97;;;;;;;20.31;36.21;102061.75;7302105;19;131804;-66
2021/12/12 09:01:07;;;;;;;3.42;0.98;;;;;;;20.38;35.98;102072.81;7305647;19;131410;-66
2021/12/12 09:03:41;;;;;;;3.90;1.10;;;;;;;20.47;35.92;102076.13;7306200;19;129299;-66
2021/12/12 09:06:10;;;;;;;2.08;0.88;;;;;;;20.51;35.93;102075.44;7308929;19;132115;-66
2021/12/12 09:09:02;;;;;;;1.75;0.77;;;;;;;20.59;35.98;102075.13;7308548;19;131465;-66
2021/12/12 09:11:40;;;;;;;3.42;1.17;;;;;;;20.63;36.19;102080.22;7307204;19;129095;-66
2021/12/12 09:14:13;;;;;;;3.25;1.35;;;;;;;20.64;35.89;102087.50;7311119;19;130329;-65
2021/12/12 09:17:00;;;;;;;5.32;1.10;;;;;;;20.63;36.04;102081.06;7308784;19;131048;-66
2021/12/12 09:19:53;;;;;;;2.22;1.08;;;;;;;20.62;36.35;102084.09;7310004;19;130538;-66
2021/12/12 09:22:29;;;;;;;2.92;0.70;;;;;;;20.57;35.94;102082.84;7309590;19;129079;-66
2021/12/12 09:25:16;;;;;;;3.95;0.90;;;;;;;20.51;35.99;102082.91;7307432;19;129031;-66
2021/12/12 09:27:46;;;;;;;1.40;0.80;;;;;;;20.46;36.40;102086.38;7308503;19;131281;-66
2021/12/12 09:30:22;;;;;;;5.30;1.70;;;;;;;20.41;36.35;102089.03;7307516;19;130659;-66
2021/12/12 09:33:17;;;;;;;4.50;1.00;;;;;;;20.37;36.50;102093.34;7309696;19;131483;-66
2021/12/12 09:35:55;;;;;;;2.75;0.75;;;;;;;20.31;36.53;102100.66;7308170;19;128990;-66
2021/12/12 09:38:25;;;;;;;4.47;0.90;;;;;;;20.24;36.44;102092.41;7308649;19;130795;-66
2021/12/12 09:41:20;;;;;;;1.98;0.77;;;;;;;20.21;36.48;102103.97;7310328;19;133154;-66
2021/12/12 09:44:04;;;;;;;3.30;1.05;;;;;;;20.18;36.57;102100.78;7307558;19;128841;-66
2021/12/12 09:47:12;;;;;;;3.53;1.30;;;;;;;20.14;36.63;102094.84;7307964;19;129185;-66
2021/12/12 09:53:52;;;;;;;1.92;1.00;;;;;;;20.14;36.78;102100.41;7307122;19;131938;-69
2021/12/12 09:56:48;;;;;;;3.38;1.00;;;;;;;20.20;37.17;102105.03;7304469;19;129001;-69
2021/12/12 09:59:39;;;;;;;4.57;1.13;;;;;;;20.29;37.36;102102.81;7309920;19;130041;-69
2021/12/12 10:02:20;;;;;;;4.28;1.10;;;;;;;20.38;36.66;102107.00;7312532;19;130521;-68
2021/12/12 10:05:02;;;;;;;3.55;0.98;;;;;;;20.49;36.70;102102.63;7314180;19;131271;-68
2021/12/12 10:08:07;;;;;;;4.63;1.40;;;;;;;20.64;36.34;102098.59;7312130;19;128865;-68
2021/12/12 10:10:57;;;;;;;9.07;1.52;;;;;;;20.77;36.52;102101.28;7307900;19;130457;-68
2021/12/12 10:13:40;;;;;;;6.13;1.23;;;;;;;20.93;36.37;102101.69;7313673;19;131426;-68
2021/12/12 10:16:22;;;;;;;7.88;1.30;;;;;;;21.05;36.06;102110.97;7312250;19;131516;-69
2021/12/12 10:19:03;;;;;;;4.07;1.20;;;;;;;21.15;36.16;102110.41;7313811;19;128971;-69
2021/12/12 10:21:44;;;;;;;5.00;1.83;;;;;;;21.22;35.64;102106.44;7317654;19;129044;-68
2021/12/12 10:24:41;;;;;;;4.53;1.27;;;;;;;21.31;35.83;102104.19;7314309;19;131293;-68
2021/12/12 10:27:43;;;;;;;5.30;1.20;;;;;;;21.35;35.55;102108.19;7317083;19;131075;-68
2021/12/12 10:30:22;;;;;;;3.45;1.33;;;;;;;21.39;35.47;102102.16;7318994;19;129939;-69
2021/12/12 10:33:15;;;;;;;3.50;1.13;;;;;;;21.40;35.68;102107.50;7314923;19;128996;-68
2021/12/12 10:35:51;;;;;;;6.47;1.30;;;;;;;21.41;35.36;102103.63;7313132;19;130673;-69
2021/12/12 10:38:23;;;;;;;4.95;1.50;;;;;;;21.38;35.46;102101.31;7314594;19;130397;-68
2021/12/12 10:41:07;;;;;;;2.88;1.20;;;;;;;21.36;35.45;102101.53;7314324;19;130269;-68
2021/12/12 10:43:39;;;;;;;7.03;1.55;;;;;;;21.30;35.01;102104.41;7308609;19;129022;-68
2021/12/12 10:46:12;;;;;;;9.00;1.40;;;;;;;21.25;35.13;102110.69;7310085;19;131322;-68
2021/12/12 10:49:07;;;;;;;11.27;1.83;;;;;;;21.19;35.17;102106.91;7315585;19;130763;-68
2021/12/12 10:51:46;;;;;;;10.70;2.03;;;;;;;21.12;35.33;102108.97;7311804;19;128894;-68
2021/12/12 10:54:20;;;;;;;5.35;1.45;;;;;;;21.06;35.18;102112.66;7305997;19;129394;-68
2021/12/12 10:56:58;;;;;;;9.60;1.63;;;;;;;20.99;35.33;102107.19;7307699;19;130638;-68
2021/12/12 10:59:42;;;;;;;8.45;1.75;;;;;;;20.94;35.29;102108.97;7305891;19;130640;-68
2021/12/12 11:02:13;;;;;;;13.00;1.85;;;;;;;20.88;35.43;102110.75;7308201;19;128884;-68
2021/12/12 11:04:44;;;;;;;15.60;1.67;;;;;;;20.85;35.39;102109.28;7306543;19;129656;-68
2021/12/12 11:07:38;;;;;;;14.50;2.13;;;;;;;20.82;35.41;102112.53;7308168;19;131515;-68
2021/12/12 11:10:16;;;;;;;18.85;2.30;;;;;;;20.83;35.61;102113.41;7298554;19;131238;-68
2021/12/12 11:12:56;;;;;;;17.17;2.28;;;;;;;20.84;35.44;102115.94;7299129;19;129615;-69
2021/12/12 11:15:34;;;;;;;9.65;1.65;;;;;;;20.88;35.71;102106.06;7297343;19;129085;-68
2021/12/12 11:18:15;;;;;;;19.60;2.03;;;;;;;20.98;35.39;102104.63;7297375;19;131472;-68
2021/12/12 11:20:51;;;;;;;12.80;2.10;;;;;;;21.08;35.76;102107.72;7307480;19;131029;-69
2021/12/12 11:23:27;;;;;;;21.83;2.27;;;;;;;21.20;35.71;102105.00;7305771;19;130127;-68
2021/12/12 11:26:00;;;;;;;17.10;2.50;;;;;;;21.30;35.62;102107.19;7307379;19;131581;-67
2021/12/12 11:28:29;;;;;;;14.15;2.50;;;;;;;21.40;35.41;102107.50;7302895;19;132420;-67
2021/12/12 11:31:04;;;;;;;15.18;2.25;;;;;;;21.49;35.46;102110.81;7297992;19;132993;-67
2021/12/12 11:33:37;;;;;;;13.48;2.00;;;;;;;21.56;35.57;102110.72;7303984;19;128839;-67
2021/12/12 11:36:08;;;;;;;9.00;1.98;;;;;;;21.63;35.45;102111.47;7300400;19;129066;-67
2021/12/12 11:38:52;;;;;;;7.45;1.70;;;;;;;21.70;35.74;102117.78;7303900;19;131666;-67
2021/12/12 11:41:32;;;;;;;15.93;2.20;;;;;;;21.77;35.72;102124.09;7299754;19;131565;-66
2021/12/12 11:44:15;;;;;;;13.73;1.88;;;;;;;21.80;35.11;102115.25;7312817;19;128972;-67
2021/12/12 11:47:03;;;;;;;7.63;1.80;;;;;;;21.85;35.22;102124.84;7309805;19;130432;-67
2021/12/12 11:49:50;;;;;;;11.82;2.10;;;;;;;21.90;35.50;102122.19;7313390;19;130687;-67
2021/12/12 11:52:35;;;;;;;9.30;2.10;;;;;;;21.94;35.36;102115.03;7315351;19;131126;-68
2021/12/12 11:55:29;;;;;;;12.85;2.25;;;;;;;21.99;34.80;102109.59;7313079;19;128820;-69
2021/12/12 11:58:19;;;;;;;4.78;1.27;;;;;;;22.02;35.13;102120.28;7312909;19;130076;-68
2021/12/12 12:00:52;;;;;;;11.00;1.85;;;;;;;22.05;35.13;102119.78;7315214;19;131282;-68
2021/12/12 12:03:32;;;;;;;5.75;1.83;;;;;;;22.09;34.88;102121.00;7311733;19;130972;-68
2021/12/12 12:06:08;;;;;;;16.40;1.83;;;;;;;22.12;34.81;102117.72;7315906;19;128880;-68